Washingtons Birthplace, Virginia
Current Conditions -  °F | °C
As of 4:35 PM on Saturday 25 Oct 2014 (Local Time) from KXSA Reporting Station
Clear Clear  
Wind Chill: 72°   Ceiling: Unl
Heat Index: 72°   Visibility: 10mi
Dew Point: 31°   Wind: 6mph
Humidity: 22%   Direction: 220°SW
Pressure: 29.84"   Gusts: 16mph
Location:  38.184°N, 76.9988°W
Report Text: KXSA 252035Z AUTO 22005G14KT 10SM CLR 22/M01 A2984 RMK AO2 T02201008
Loading
Personal Weather Stations






























Interactive Weather Map
Tropical Storm Tracking
New forecast layout! Learn more

10-Day Weather Forecast

Advertisements
Track Severe Weather on mobile